createdAt,value
2023-01-27T00:02:42.921Z,11.38
2023-01-27T00:05:28.758Z,9.25
2023-01-27T00:08:15.159Z,9.95
2023-01-27T00:11:19.944Z,10.73
2023-01-27T00:14:05.961Z,10.85
2023-01-27T00:16:52.233Z,7.97
2023-01-27T00:19:38.202Z,9.65
2023-01-27T00:22:42.834Z,11.52
2023-01-27T00:25:28.790Z,9.38
2023-01-27T00:28:22.982Z,8.18
2023-01-27T00:31:29.544Z,8.57
2023-01-27T00:34:15.842Z,7.82
2023-01-27T00:37:01.578Z,7.07
2023-01-27T00:39:47.480Z,8.23
2023-01-27T00:42:33.270Z,7.72
2023-01-27T00:45:37.745Z,9.07
2023-01-27T00:48:24.811Z,8.13
2023-01-27T00:51:11.495Z,8.25
2023-01-27T00:53:59.297Z,6.47
2023-01-27T00:56:45.211Z,10.05
2023-01-27T00:59:31.907Z,6.78
2023-01-27T01:02:18.069Z,10.27
2023-01-27T01:05:04.112Z,11.45
2023-01-27T01:07:50.024Z,8.30
2023-01-27T01:10:38.003Z,7.20
2023-01-27T01:13:24.027Z,8.77
2023-01-27T01:16:19.174Z,9.02
2023-01-27T01:19:04.931Z,7.32
2023-01-27T01:21:50.819Z,8.30
2023-01-27T01:24:36.614Z,5.88
2023-01-27T01:27:22.943Z,6.32
2023-01-27T01:30:09.841Z,8.15
2023-01-27T01:32:56.977Z,7.13
2023-01-27T01:35:43.558Z,5.90
2023-01-27T01:38:29.656Z,5.20
2023-01-27T01:41:18.634Z,6.60
2023-01-27T01:44:31.033Z,4.30
2023-01-27T01:47:19.159Z,5.03
2023-01-27T01:50:05.589Z,5.45
2023-01-27T01:52:52.226Z,4.75
2023-01-27T01:55:39.611Z,5.45
2023-01-27T01:58:28.113Z,5.28
2023-01-27T02:01:19.094Z,4.40
2023-01-27T02:04:09.632Z,4.57
2023-01-27T02:07:07.069Z,5.55
2023-01-27T02:09:55.213Z,4.70
2023-01-27T02:12:41.309Z,3.85
2023-01-27T02:15:29.384Z,4.50
2023-01-27T02:18:15.107Z,4.10
2023-01-27T02:21:01.301Z,4.20
2023-01-27T02:23:56.433Z,5.57
2023-01-27T02:26:44.389Z,3.85
2023-01-27T02:29:30.045Z,4.82
2023-01-27T02:32:23.751Z,5.05
2023-01-27T02:35:13.305Z,4.97
2023-01-27T02:37:59.693Z,5.07
2023-01-27T02:40:49.068Z,4.03
2023-01-27T02:43:35.223Z,5.90
2023-01-27T02:46:21.447Z,5.13
2023-01-27T02:49:07.571Z,3.75
2023-01-27T02:51:54.419Z,4.47
2023-01-27T02:54:41.360Z,4.43
2023-01-27T02:57:27.634Z,5.07
2023-01-27T03:00:33.657Z,5.05
2023-01-27T03:03:19.726Z,4.18
2023-01-27T03:06:05.896Z,4.72
2023-01-27T03:08:51.895Z,5.40
2023-01-27T03:11:56.291Z,4.82
2023-01-27T03:15:01.314Z,5.43
2023-01-27T03:18:05.922Z,4.93
2023-01-27T03:20:52.301Z,5.05
2023-01-27T03:23:38.624Z,4.03
2023-01-27T03:26:25.037Z,3.78
2023-01-27T03:29:33.959Z,5.15
2023-01-27T03:32:20.787Z,5.38
2023-01-27T03:35:23.384Z,4.93
2023-01-27T03:38:31.875Z,5.22
2023-01-27T03:41:36.183Z,5.05
2023-01-27T03:44:40.752Z,4.72
2023-01-27T03:47:27.256Z,4.90
2023-01-27T03:50:19.344Z,4.18
2023-01-27T03:53:05.725Z,5.03
2023-01-27T03:55:51.845Z,3.78
2023-01-27T03:58:38.052Z,8.23
2023-01-27T04:01:24.523Z,4.50
2023-01-27T04:04:30.241Z,5.03
2023-01-27T04:07:20.013Z,4.70
2023-01-27T04:10:06.757Z,6.07
2023-01-27T04:12:52.821Z,4.82
2023-01-27T04:15:38.618Z,5.43
2023-01-27T04:18:24.363Z,5.22
2023-01-27T04:21:10.074Z,4.18
2023-01-27T04:23:56.550Z,4.72
2023-01-27T04:26:43.897Z,5.30
2023-01-27T04:29:31.783Z,4.00
2023-01-27T04:32:17.673Z,3.90
2023-01-27T04:35:03.592Z,5.30
2023-01-27T04:37:49.808Z,4.65
2023-01-27T04:40:35.699Z,3.85
2023-01-27T04:43:21.309Z,4.53
2023-01-27T04:46:07.267Z,4.30
2023-01-27T04:48:53.092Z,4.88
2023-01-27T04:51:39.027Z,5.28
2023-01-27T04:54:24.860Z,4.05
2023-01-27T04:57:10.655Z,5.70
2023-01-27T04:59:56.490Z,5.88
2023-01-27T05:02:43.313Z,4.57
2023-01-27T05:05:29.052Z,4.15
2023-01-27T05:08:15.313Z,5.85
2023-01-27T05:11:01.561Z,4.45
2023-01-27T05:13:47.383Z,5.22
2023-01-27T05:16:33.319Z,5.38
2023-01-27T05:19:19.167Z,4.95
2023-01-27T05:22:05.110Z,4.80
2023-01-27T05:24:51.057Z,4.40
2023-01-27T05:27:37.415Z,4.85
2023-01-27T05:30:23.357Z,4.90
2023-01-27T05:33:10.989Z,4.22
2023-01-27T05:36:01.622Z,4.47
2023-01-27T05:38:47.570Z,3.92
2023-01-27T05:41:34.913Z,3.75
2023-01-27T05:44:20.873Z,4.35
2023-01-27T05:47:06.831Z,4.00
2023-01-27T05:49:52.872Z,4.10
2023-01-27T05:52:38.496Z,5.70
2023-01-27T05:55:24.423Z,6.07
2023-01-27T05:58:10.244Z,6.93
2023-01-27T06:00:56.153Z,7.15
2023-01-27T06:03:43.035Z,5.85
2023-01-27T06:06:30.780Z,6.13
2023-01-27T06:09:16.432Z,4.63
2023-01-27T06:12:02.389Z,8.43
2023-01-27T06:14:48.040Z,5.45
2023-01-27T06:17:34.104Z,5.72
2023-01-27T06:20:21.025Z,5.13
2023-01-27T06:23:10.341Z,5.35
2023-01-27T06:25:56.802Z,4.65
2023-01-27T06:28:43.094Z,5.15
2023-01-27T06:31:29.407Z,8.32
2023-01-27T06:34:15.806Z,6.60
2023-01-27T06:37:01.682Z,5.90
2023-01-27T06:39:47.356Z,5.35
2023-01-27T06:42:33.403Z,5.40
2023-01-27T06:45:19.542Z,5.57
2023-01-27T06:48:05.610Z,6.22
2023-01-27T06:50:53.299Z,5.65
2023-01-27T06:53:39.884Z,5.22
2023-01-27T06:56:25.821Z,4.72
2023-01-27T06:59:11.757Z,3.78
2023-01-27T07:01:57.953Z,5.65
2023-01-27T07:04:43.730Z,5.32
2023-01-27T07:07:29.685Z,5.05
2023-01-27T07:10:16.021Z,5.85
2023-01-27T07:13:07.207Z,7.80
2023-01-27T07:15:56.746Z,5.15
2023-01-27T07:18:42.821Z,6.47
2023-01-27T07:21:28.481Z,6.20
2023-01-27T07:24:14.247Z,6.50
2023-01-27T07:27:00.300Z,6.15
2023-01-27T07:29:46.117Z,4.30
2023-01-27T07:32:32.051Z,5.93
2023-01-27T07:35:18.209Z,6.63
2023-01-27T07:38:05.539Z,4.80
2023-01-27T07:40:51.746Z,6.07
2023-01-27T07:43:37.625Z,4.90
2023-01-27T07:46:26.750Z,5.40
2023-01-27T07:49:12.719Z,5.20
2023-01-27T07:51:58.662Z,7.05
2023-01-27T07:54:44.476Z,6.95
2023-01-27T07:57:30.264Z,6.95
2023-01-27T08:00:16.475Z,5.22
2023-01-27T08:03:03.100Z,5.07
2023-01-27T08:05:49.564Z,5.85
2023-01-27T08:08:37.970Z,6.15
2023-01-27T08:11:23.979Z,4.70
2023-01-27T08:14:09.956Z,5.93
2023-01-27T08:16:55.869Z,6.82
2023-01-27T08:19:42.039Z,6.32
2023-01-27T08:22:31.407Z,6.82
2023-01-27T08:25:17.275Z,6.20
2023-01-27T08:28:03.044Z,6.95
2023-01-27T08:30:52.076Z,7.57
2023-01-27T08:33:39.194Z,7.90
2023-01-27T08:36:25.530Z,7.63
2023-01-27T08:39:11.961Z,8.07
2023-01-27T08:41:58.170Z,9.48
2023-01-27T08:44:43.851Z,7.35
2023-01-27T08:47:29.744Z,8.95
2023-01-27T08:50:16.087Z,7.50
2023-01-27T08:53:04.183Z,8.27
2023-01-27T08:55:50.641Z,7.53
2023-01-27T08:58:36.585Z,7.78
2023-01-27T09:01:22.585Z,7.93
2023-01-27T09:04:08.816Z,7.63
2023-01-27T09:06:54.477Z,6.97
2023-01-27T09:09:40.510Z,7.60
2023-01-27T09:12:26.455Z,6.35
2023-01-27T09:15:13.512Z,9.45
2023-01-27T09:18:00.257Z,7.80
2023-01-27T09:20:47.011Z,9.23
2023-01-27T09:23:33.646Z,8.82
2023-01-27T09:26:19.552Z,8.55
2023-01-27T09:29:05.497Z,10.45
2023-01-27T09:31:51.372Z,10.25
2023-01-27T09:34:37.381Z,7.15
2023-01-27T09:37:25.894Z,8.98
2023-01-27T09:40:42.416Z,6.97
2023-01-27T09:43:54.289Z,9.68
2023-01-27T09:46:55.768Z,7.30
2023-01-27T09:50:05.444Z,7.90
2023-01-27T09:53:19.253Z,9.30
2023-01-27T09:56:10.888Z,8.35
2023-01-27T09:59:25.212Z,8.95
2023-01-27T10:02:11.356Z,9.35
2023-01-27T10:05:16.046Z,7.43
2023-01-27T10:08:11.510Z,6.00
2023-01-27T10:11:00.107Z,7.43
2023-01-27T10:14:22.758Z,5.35
2023-01-27T10:17:24.695Z,8.57
2023-01-27T10:20:14.069Z,6.43
2023-01-27T10:23:02.909Z,6.50
2023-01-27T10:25:57.729Z,7.53
2023-01-27T10:28:51.281Z,7.07
2023-01-27T10:31:44.232Z,7.55
2023-01-27T10:37:23.901Z,7.68
2023-01-27T10:40:48.206Z,8.07
2023-01-27T10:43:37.258Z,9.15
2023-01-27T10:46:47.779Z,9.55
2023-01-27T10:49:49.738Z,7.22
2023-01-27T10:52:40.577Z,8.13
2023-01-27T10:55:30.135Z,7.80
2023-01-27T10:58:26.033Z,8.85
2023-01-27T11:01:22.878Z,7.47
2023-01-27T11:04:16.726Z,6.78
2023-01-27T11:07:04.371Z,10.65
2023-01-27T11:10:19.829Z,6.93
2023-01-27T11:13:08.747Z,6.95
2023-01-27T11:15:54.859Z,7.35
2023-01-27T11:18:43.232Z,7.43
2023-01-27T11:21:30.848Z,8.30
2023-01-27T11:24:28.928Z,6.88
2023-01-27T11:27:24.287Z,7.05
2023-01-27T11:30:17.265Z,7.15
2023-01-27T11:33:18.780Z,34.35
2023-01-27T11:36:05.103Z,8.50
2023-01-27T11:38:52.285Z,7.97
2023-01-27T11:41:46.505Z,8.90
2023-01-27T11:44:34.466Z,9.63
2023-01-27T11:47:26.557Z,8.30
2023-01-27T11:50:21.072Z,7.15
2023-01-27T11:53:36.849Z,8.05
2023-01-27T11:56:24.499Z,9.40
2023-01-27T11:59:18.001Z,7.50
2023-01-27T12:02:07.095Z,10.55
2023-01-27T12:05:07.832Z,8.13
2023-01-27T12:08:01.968Z,8.88
2023-01-27T12:10:48.250Z,8.32
2023-01-27T12:13:34.437Z,7.10
2023-01-27T12:16:21.130Z,11.48
2023-01-27T12:19:24.063Z,9.02
2023-01-27T12:25:28.104Z,6.88
2023-01-27T12:28:25.264Z,8.52
2023-01-27T12:31:31.380Z,7.45
2023-01-27T12:34:28.117Z,8.48
2023-01-27T12:37:22.069Z,8.90
2023-01-27T12:40:19.745Z,9.00
2023-01-27T12:43:20.251Z,9.48
2023-01-27T12:46:19.178Z,6.90
2023-01-27T12:49:11.316Z,7.78
2023-01-27T12:51:57.454Z,7.97
2023-01-27T12:54:43.341Z,8.68
2023-01-27T12:57:30.406Z,6.63
2023-01-27T13:00:17.099Z,8.02
2023-01-27T13:03:07.633Z,8.55
2023-01-27T13:05:55.585Z,10.75
2023-01-27T13:08:41.769Z,6.65
2023-01-27T13:11:39.211Z,7.18
2023-01-27T13:14:30.113Z,7.65
2023-01-27T13:17:45.797Z,7.65
2023-01-27T13:20:38.107Z,8.50
2023-01-27T13:23:27.927Z,7.68
2023-01-27T13:26:21.590Z,6.78
2023-01-27T13:29:10.233Z,8.27
2023-01-27T13:32:06.908Z,8.35
2023-01-27T13:34:56.070Z,8.65
2023-01-27T13:38:08.408Z,6.20
2023-01-27T13:40:54.385Z,7.55
2023-01-27T13:43:41.629Z,7.03
2023-01-27T13:46:30.750Z,9.82
2023-01-27T13:49:28.867Z,9.68
2023-01-27T13:52:14.819Z,6.63
2023-01-27T13:55:00.916Z,7.05
2023-01-27T13:57:53.266Z,7.13
2023-01-27T14:00:53.147Z,6.75
2023-01-27T14:03:39.427Z,7.75
2023-01-27T14:06:28.353Z,8.70
2023-01-27T14:09:33.058Z,6.30
2023-01-27T14:12:43.506Z,6.60
2023-01-27T14:15:38.213Z,6.40
2023-01-27T14:18:28.295Z,6.47
2023-01-27T14:21:39.338Z,8.07
2023-01-27T14:27:29.526Z,5.47
2023-01-27T14:30:26.139Z,8.15
2023-01-27T14:33:21.084Z,5.75
2023-01-27T14:36:21.678Z,4.82
2023-01-27T14:39:33.904Z,4.82
2023-01-27T14:42:41.026Z,8.93
2023-01-27T14:45:33.378Z,11.88
2023-01-27T14:48:44.019Z,14.30
2023-01-27T14:51:39.992Z,16.13
2023-01-27T14:54:38.373Z,8.45
2023-01-27T14:57:37.333Z,10.27
2023-01-27T15:00:30.160Z,7.78
2023-01-27T15:03:23.089Z,5.75
2023-01-27T15:06:40.829Z,6.43
2023-01-27T15:09:39.187Z,7.10
2023-01-27T15:12:57.317Z,6.28
2023-01-27T15:16:09.898Z,6.35
2023-01-27T15:19:02.074Z,7.97
2023-01-27T15:21:58.711Z,10.57
2023-01-27T15:24:57.282Z,7.88
2023-01-27T15:27:44.748Z,8.32
2023-01-27T15:30:38.535Z,9.25
2023-01-27T15:33:50.083Z,10.27
2023-01-27T15:36:38.468Z,16.88
2023-01-27T15:39:35.549Z,10.05
2023-01-27T15:42:58.189Z,12.40
2023-01-27T15:45:46.592Z,11.90
2023-01-27T15:48:34.648Z,13.32
2023-01-27T15:51:21.130Z,14.50
2023-01-27T15:54:14.205Z,12.40
2023-01-27T15:57:04.611Z,15.45
2023-01-27T15:59:58.803Z,12.82
2023-01-27T16:02:46.996Z,12.68
2023-01-27T16:05:38.344Z,15.43
2023-01-27T16:08:24.782Z,13.50
2023-01-27T16:11:28.941Z,14.23
2023-01-27T16:14:15.793Z,14.60
2023-01-27T16:17:15.791Z,17.95
2023-01-27T16:20:19.997Z,12.85
2023-01-27T16:23:12.180Z,15.07
2023-01-27T16:26:30.130Z,16.02
2023-01-27T16:29:23.946Z,12.30
2023-01-27T16:32:22.111Z,14.95
2023-01-27T16:35:17.542Z,12.55
2023-01-27T16:38:08.483Z,11.50
2023-01-27T16:41:01.696Z,13.38
2023-01-27T16:43:54.728Z,13.07
2023-01-27T16:46:45.774Z,13.68
2023-01-27T16:49:37.565Z,13.23
2023-01-27T16:52:40.714Z,12.70
2023-01-27T16:55:27.525Z,15.23
2023-01-27T16:58:20.129Z,13.02
2023-01-27T17:01:06.829Z,18.83
2023-01-27T17:04:04.875Z,14.93
2023-01-27T17:06:59.205Z,14.77
2023-01-27T17:09:57.744Z,14.27
2023-01-27T17:12:46.998Z,15.45
2023-01-27T17:15:38.481Z,14.50
2023-01-27T17:18:25.255Z,15.23
2023-01-27T17:21:11.110Z,14.32
2023-01-27T17:24:06.752Z,15.55
2023-01-27T17:27:06.056Z,14.13
2023-01-27T17:30:02.124Z,12.88
2023-01-27T17:32:50.831Z,16.20
2023-01-27T17:35:38.039Z,13.00
2023-01-27T17:38:36.118Z,13.25
2023-01-27T17:41:37.230Z,12.70
2023-01-27T17:44:23.127Z,11.57
2023-01-27T17:47:18.680Z,13.20
2023-01-27T17:50:06.215Z,16.02
2023-01-27T17:52:54.037Z,16.05
2023-01-27T17:55:40.130Z,13.63
2023-01-27T17:58:27.105Z,12.13
2023-01-27T18:01:14.784Z,12.82
2023-01-27T18:04:01.206Z,13.10
2023-01-27T18:06:49.865Z,13.52
2023-01-27T18:09:44.055Z,11.18
2023-01-27T18:12:35.864Z,13.73
2023-01-27T18:15:37.749Z,12.77
2023-01-27T18:18:32.477Z,13.20
2023-01-27T18:21:26.789Z,13.10
2023-01-27T18:24:20.863Z,11.63
2023-01-27T18:27:23.017Z,12.35
2023-01-27T18:30:16.316Z,13.23
2023-01-27T18:33:04.631Z,14.20
2023-01-27T18:35:59.155Z,12.07
2023-01-27T18:38:50.696Z,11.45
2023-01-27T18:41:46.483Z,13.18
2023-01-27T18:44:36.191Z,12.25
2023-01-27T18:47:28.768Z,11.57
2023-01-27T18:50:18.574Z,10.75
2023-01-27T18:53:12.319Z,9.98
2023-01-27T18:56:00.073Z,10.13
2023-01-27T18:58:46.366Z,12.30
2023-01-27T19:01:35.133Z,12.73
2023-01-27T19:04:23.360Z,12.13
2023-01-27T19:07:17.874Z,13.95
2023-01-27T19:10:11.915Z,18.17
2023-01-27T19:13:01.743Z,11.30
2023-01-27T19:15:51.960Z,11.48
2023-01-27T19:18:39.117Z,11.95
2023-01-27T19:21:28.594Z,13.52
2023-01-27T19:24:15.084Z,13.45
2023-01-27T19:27:04.161Z,11.07
2023-01-27T19:29:51.110Z,10.68
2023-01-27T19:32:37.383Z,11.45
2023-01-27T19:35:25.459Z,9.52
2023-01-27T19:38:13.240Z,10.60
2023-01-27T19:40:59.850Z,9.43
2023-01-27T19:43:50.202Z,11.13
2023-01-27T19:46:37.298Z,9.93
2023-01-27T19:49:24.588Z,9.85
2023-01-27T19:52:11.199Z,8.00
2023-01-27T19:54:58.627Z,9.10
2023-01-27T19:57:45.644Z,7.90
2023-01-27T20:00:37.085Z,12.50
2023-01-27T20:03:23.757Z,10.55
2023-01-27T20:06:18.960Z,10.77
2023-01-27T20:09:05.211Z,9.90
2023-01-27T20:11:51.329Z,7.88
2023-01-27T20:14:37.245Z,8.07
2023-01-27T20:17:23.272Z,7.75
2023-01-27T20:20:10.032Z,8.70
2023-01-27T20:22:56.424Z,8.40
2023-01-27T20:25:42.440Z,9.85
2023-01-27T20:28:28.775Z,7.72
2023-01-27T20:31:22.640Z,15.88
2023-01-27T20:34:08.441Z,8.00
2023-01-27T20:36:54.347Z,7.32
2023-01-27T20:39:40.430Z,10.30
2023-01-27T20:42:26.313Z,7.53
2023-01-27T20:45:12.757Z,6.78
2023-01-27T20:47:59.948Z,6.13
2023-01-27T20:50:46.073Z,10.32
2023-01-27T20:53:34.331Z,5.95
2023-01-27T20:56:24.034Z,6.50
2023-01-27T20:59:09.932Z,7.03
2023-01-27T21:01:55.746Z,7.22
2023-01-27T21:04:41.518Z,8.43
2023-01-27T21:07:27.399Z,4.97
2023-01-27T21:10:13.202Z,5.40
2023-01-27T21:12:59.148Z,5.80
2023-01-27T21:15:49.024Z,7.93
2023-01-27T21:18:38.263Z,7.32
2023-01-27T21:21:27.348Z,5.80
2023-01-27T21:24:13.564Z,7.63
2023-01-27T21:26:59.753Z,10.13
2023-01-27T21:29:45.588Z,11.90
2023-01-27T21:32:31.601Z,11.38
2023-01-27T21:35:17.451Z,7.43
2023-01-27T21:38:03.464Z,7.45
2023-01-27T21:40:51.469Z,5.88
2023-01-27T21:43:56.619Z,5.70
2023-01-27T21:46:42.759Z,6.32
2023-01-27T21:49:29.037Z,5.90
2023-01-27T21:52:14.862Z,6.85
2023-01-27T21:55:02.541Z,6.05
2023-01-27T21:57:50.926Z,7.75
2023-01-27T22:00:36.691Z,9.77
2023-01-27T22:03:23.957Z,8.00
2023-01-27T22:06:10.533Z,9.68
2023-01-27T22:08:56.459Z,9.10
2023-01-27T22:11:42.221Z,8.63
2023-01-27T22:14:29.296Z,8.27
2023-01-27T22:17:16.349Z,5.47
2023-01-27T22:20:04.408Z,6.90
2023-01-27T22:22:51.991Z,18.38
2023-01-27T22:25:38.004Z,11.00
2023-01-27T22:28:24.378Z,7.32
2023-01-27T22:31:10.340Z,7.97
2023-01-27T22:33:55.938Z,6.93
2023-01-27T22:36:41.840Z,9.63
2023-01-27T22:39:27.719Z,6.95
2023-01-27T22:42:13.585Z,7.78
2023-01-27T22:44:59.796Z,9.80
2023-01-27T22:47:45.654Z,8.63
2023-01-27T22:50:31.398Z,9.75
2023-01-27T22:53:17.389Z,6.90
2023-01-27T22:56:04.161Z,9.50
2023-01-27T22:58:50.082Z,10.40
2023-01-27T23:01:36.109Z,10.05
2023-01-27T23:04:21.805Z,9.20
2023-01-27T23:07:07.494Z,9.27
2023-01-27T23:09:53.491Z,8.00
2023-01-27T23:12:39.117Z,12.18
2023-01-27T23:15:25.180Z,8.68
2023-01-27T23:18:11.472Z,8.18
2023-01-27T23:21:02.776Z,8.55
2023-01-27T23:23:51.011Z,9.20
2023-01-27T23:26:37.256Z,8.90
2023-01-27T23:29:25.295Z,9.65
2023-01-27T23:32:11.908Z,9.80
2023-01-27T23:34:57.670Z,9.75
2023-01-27T23:37:43.601Z,10.52
2023-01-27T23:40:29.478Z,9.88
2023-01-27T23:43:15.220Z,9.63
2023-01-27T23:46:00.937Z,11.02
2023-01-27T23:48:53.908Z,11.48
2023-01-27T23:51:40.066Z,10.63
2023-01-27T23:54:26.177Z,10.10
2023-01-27T23:57:11.865Z,10.63
2023-01-27T23:59:57.780Z,15.88
